createdAt,value
2023-01-07T00:00:15.657Z,3.931
2023-01-07T00:02:17.399Z,2.386
2023-01-07T00:04:19.265Z,0.842
2023-01-07T00:06:21.032Z,2.386
2023-01-07T00:08:22.596Z,2.246
2023-01-07T00:10:23.996Z,1.825
2023-01-07T00:12:25.428Z,4.212
2023-01-07T00:14:27.323Z,0.28
2023-01-07T00:16:29.115Z,0
2023-01-07T00:18:30.310Z,0
2023-01-07T00:20:32.226Z,0
2023-01-07T00:22:33.845Z,0
2023-01-07T00:24:34.857Z,0
2023-01-07T00:26:36.626Z,1.404
2023-01-07T00:28:37.742Z,0
2023-01-07T00:30:38.692Z,1.263
2023-01-07T00:32:39.757Z,0
2023-01-07T00:34:41.111Z,0
2023-01-07T00:36:42.324Z,0.561
2023-01-07T00:38:44.210Z,0
2023-01-07T00:40:45.995Z,2.527
2023-01-07T00:42:47.832Z,0
2023-01-07T00:44:48.893Z,1.544
2023-01-07T00:46:50.013Z,0.28
2023-01-07T00:48:51.085Z,2.386
2023-01-07T00:52:53.688Z,0.982
2023-01-07T00:54:55.289Z,0.561
2023-01-07T00:56:57.220Z,0.14
2023-01-07T00:58:58.228Z,2.527
2023-01-07T01:03:01.854Z,1.825
2023-01-07T01:05:03.578Z,4.492
2023-01-07T01:07:04.926Z,1.404
2023-01-07T01:09:06.349Z,1.404
2023-01-07T01:11:07.733Z,1.684
2023-01-07T01:13:09.242Z,1.684
2023-01-07T01:15:10.887Z,1.544
2023-01-07T01:17:11.931Z,0.702
2023-01-07T01:19:13.132Z,1.123
2023-01-07T01:21:14.936Z,0.702
2023-01-07T01:23:16.409Z,0.561
2023-01-07T01:25:17.994Z,1.123
2023-01-07T01:27:19.228Z,0.702
2023-01-07T01:29:20.248Z,2.386
2023-01-07T01:31:21.719Z,1.263
2023-01-07T01:35:25.364Z,0.982
2023-01-07T01:37:27.170Z,0.702
2023-01-07T01:39:28.132Z,2.386
2023-01-07T01:41:29.205Z,0
2023-01-07T01:45:31.638Z,3.369
2023-01-07T01:47:33.165Z,3.229
2023-01-07T01:49:34.519Z,0.842
2023-01-07T01:51:36.330Z,0
2023-01-07T01:53:38.195Z,1.825
2023-01-07T01:57:40.889Z,0.561
2023-01-07T01:59:42.194Z,0
2023-01-07T02:01:43.336Z,0
2023-01-07T02:03:44.497Z,0.702
2023-01-07T02:07:47.214Z,0
2023-01-07T02:09:48.713Z,0
2023-01-07T02:11:50.420Z,1.544
2023-01-07T02:13:51.864Z,0.842
2023-01-07T02:17:55.129Z,0
2023-01-07T02:19:56.121Z,0
2023-01-07T02:21:57.969Z,0
2023-01-07T02:23:59.820Z,0
2023-01-07T02:28:02.901Z,0
2023-01-07T02:30:04.054Z,0
2023-01-07T02:32:05.294Z,0
2023-01-07T02:34:07.209Z,0
2023-01-07T02:36:08.633Z,0
2023-01-07T02:38:09.659Z,0
2023-01-07T02:40:11.530Z,0
2023-01-07T02:42:13.156Z,0
2023-01-07T02:44:14.878Z,0
2023-01-07T02:46:16.837Z,0
2023-01-07T02:48:18.274Z,0
2023-01-07T02:50:19.793Z,0
2023-01-07T02:52:20.833Z,0
2023-01-07T02:54:21.848Z,0
2023-01-07T02:56:23.124Z,0
2023-01-07T02:58:24.145Z,0
2023-01-07T03:00:26.039Z,0
2023-01-07T03:02:27.476Z,0
2023-01-07T03:04:29.009Z,0
2023-01-07T03:06:30.504Z,0
2023-01-07T03:08:32.241Z,0
2023-01-07T03:10:33.900Z,0
2023-01-07T03:12:35.013Z,0
2023-01-07T03:14:36.005Z,0
2023-01-07T03:16:37.458Z,0
2023-01-07T03:18:38.798Z,0
2023-01-07T03:20:40.060Z,0
2023-01-07T03:22:41.445Z,0
2023-01-07T03:24:42.949Z,0
2023-01-07T03:26:44.067Z,0
2023-01-07T03:28:45.700Z,0
2023-01-07T03:30:47.337Z,0
2023-01-07T03:32:49.090Z,0
2023-01-07T03:34:50.103Z,0
2023-01-07T03:36:51.189Z,0
2023-01-07T03:38:52.546Z,0
2023-01-07T03:40:54.157Z,0
2023-01-07T03:42:55.122Z,0
2023-01-07T03:44:57.081Z,0.842
2023-01-07T03:46:58.701Z,0
2023-01-07T03:49:00.040Z,0
2023-01-07T03:51:01.342Z,0.14
2023-01-07T03:53:03.102Z,0.561
2023-01-07T03:55:04.089Z,0
2023-01-07T03:59:07.272Z,0
2023-01-07T04:01:08.670Z,0
2023-01-07T04:03:09.636Z,0
2023-01-07T04:05:11.338Z,0
2023-01-07T04:09:14.290Z,0
2023-01-07T04:11:16.063Z,0
2023-01-07T04:13:17.263Z,0
2023-01-07T04:15:18.804Z,0
2023-01-07T04:17:20.671Z,0.842
2023-01-07T04:19:22.413Z,1.825
2023-01-07T04:21:24.152Z,3.369
2023-01-07T04:23:25.803Z,0.14
2023-01-07T04:25:27.476Z,0
2023-01-07T04:27:29.106Z,1.263
2023-01-07T04:29:30.239Z,2.106
2023-01-07T04:31:31.603Z,0
2023-01-07T04:33:32.635Z,0.14
2023-01-07T04:35:33.791Z,0.14
2023-01-07T04:37:35.695Z,3.088
2023-01-07T04:41:38.205Z,1.684
2023-01-07T04:43:39.600Z,5.616
2023-01-07T04:45:40.979Z,4.773
2023-01-07T04:47:42.080Z,2.386
2023-01-07T04:51:45.474Z,2.106
2023-01-07T04:53:47.345Z,4.773
2023-01-07T04:55:49.242Z,4.773
2023-01-07T04:57:50.746Z,2.667
2023-01-07T04:59:51.618Z,2.386
2023-01-07T05:01:53.114Z,4.773
2023-01-07T05:03:54.018Z,3.931
2023-01-07T05:05:55.748Z,4.914
2023-01-07T05:07:57.368Z,2.386
2023-01-07T05:09:58.858Z,2.808
2023-01-07T05:14:01.524Z,2.106
2023-01-07T05:16:03.250Z,3.51
2023-01-07T05:18:04.694Z,0.842
2023-01-07T05:20:06.415Z,4.071
2023-01-07T05:24:09.431Z,2.808
2023-01-07T05:26:10.928Z,0
2023-01-07T05:28:12.849Z,1.965
2023-01-07T05:30:14.448Z,2.948
2023-01-07T05:32:15.357Z,2.527
2023-01-07T05:34:16.995Z,2.386
2023-01-07T05:36:18.506Z,2.808
2023-01-07T05:38:19.892Z,2.948
2023-01-07T05:40:21.231Z,1.404
2023-01-07T05:42:22.314Z,2.667
2023-01-07T05:44:24.146Z,1.404
2023-01-07T05:46:25.226Z,0.982
2023-01-07T05:48:26.175Z,3.369
2023-01-07T05:50:28.027Z,2.246
2023-01-07T05:52:29.895Z,2.106
2023-01-07T05:56:32.067Z,1.123
2023-01-07T05:58:33.492Z,0
2023-01-07T06:00:34.816Z,0
2023-01-07T06:02:35.878Z,0
2023-01-07T06:05:20.818Z,1.123
2023-01-07T06:07:22.441Z,3.369
2023-01-07T06:09:23.532Z,6.318
2023-01-07T06:11:25.317Z,2.386
2023-01-07T06:13:26.734Z,3.79
2023-01-07T06:15:28.456Z,2.527
2023-01-07T06:17:29.587Z,2.106
2023-01-07T06:19:30.648Z,2.948
2023-01-07T06:21:32.486Z,2.667
2023-01-07T06:23:33.873Z,3.931
2023-01-07T06:25:34.853Z,2.527
2023-01-07T06:27:36.278Z,3.229
2023-01-07T06:29:37.908Z,2.948
2023-01-07T06:31:39.687Z,0.421
2023-01-07T06:33:41.140Z,2.246
2023-01-07T06:35:42.870Z,0.702
2023-01-07T06:37:44.787Z,0.14
2023-01-07T06:39:46.682Z,0
2023-01-07T06:41:47.941Z,0
2023-01-07T06:43:49.759Z,4.773
2023-01-07T06:45:51.494Z,0
2023-01-07T06:47:52.508Z,0
2023-01-07T06:49:53.749Z,1.965
2023-01-07T06:51:55.235Z,0.982
2023-01-07T06:53:56.783Z,1.825
2023-01-07T06:55:58.709Z,1.263
2023-01-07T06:57:59.968Z,0
2023-01-07T07:00:01.648Z,0
2023-01-07T07:02:03.254Z,0
2023-01-07T07:04:05.088Z,0
2023-01-07T07:06:06.533Z,0
2023-01-07T07:08:08.333Z,0
2023-01-07T07:10:09.425Z,0
2023-01-07T07:12:10.911Z,0
2023-01-07T07:14:12.544Z,1.684
2023-01-07T07:16:14.044Z,0.702
2023-01-07T07:18:15.728Z,0
2023-01-07T07:20:17.233Z,0
2023-01-07T07:22:19.148Z,0
2023-01-07T07:24:20.758Z,0
2023-01-07T07:26:22.425Z,1.544
2023-01-07T07:28:23.809Z,0.561
2023-01-07T07:30:46.020Z,1.684
2023-01-07T07:32:26.531Z,0
2023-01-07T07:34:28.187Z,0
2023-01-07T07:36:30.052Z,0
2023-01-07T07:38:31.909Z,0.982
2023-01-07T07:40:33.697Z,3.369
2023-01-07T07:43:09.832Z,2.527
2023-01-07T07:44:35.996Z,0.421
2023-01-07T07:46:37.771Z,1.825
2023-01-07T07:48:39.373Z,2.246
2023-01-07T07:50:40.817Z,2.386
2023-01-07T07:52:41.689Z,3.51
2023-01-07T07:54:43.408Z,3.229
2023-01-07T07:56:45.170Z,0.14
2023-01-07T07:58:46.858Z,1.684
2023-01-07T08:00:48.433Z,2.527
2023-01-07T08:02:49.704Z,0
2023-01-07T08:04:51.071Z,0.982
2023-01-07T08:06:52.765Z,1.263
2023-01-07T08:08:53.950Z,0
2023-01-07T08:10:55.394Z,0
2023-01-07T08:12:57.067Z,0
2023-01-07T08:14:58.033Z,0
2023-01-07T08:16:59.254Z,0
2023-01-07T08:19:00.285Z,0
2023-01-07T08:21:01.685Z,0
2023-01-07T08:25:04.293Z,0.28
2023-01-07T08:27:05.564Z,0
2023-01-07T08:29:07.418Z,0
2023-01-07T08:31:08.805Z,0.14
2023-01-07T08:33:10.422Z,0
2023-01-07T08:35:11.930Z,0
2023-01-07T08:37:13.007Z,0
2023-01-07T08:39:14.801Z,0
2023-01-07T08:41:16.060Z,0
2023-01-07T08:43:17.178Z,0
2023-01-07T08:45:18.972Z,0
2023-01-07T08:47:20.047Z,0
2023-01-07T08:49:21.327Z,0
2023-01-07T08:51:22.622Z,0.561
2023-01-07T08:53:23.763Z,2.527
2023-01-07T08:57:27.394Z,1.684
2023-01-07T08:59:29.050Z,2.527
2023-01-07T09:01:30.242Z,1.825
2023-01-07T09:03:31.206Z,3.931
2023-01-07T09:07:34.866Z,0.702
2023-01-07T09:09:36.140Z,1.404
2023-01-07T09:11:37.952Z,2.667
2023-01-07T09:13:39.404Z,2.527
2023-01-07T09:15:40.614Z,2.808
2023-01-07T09:19:43.147Z,1.544
2023-01-07T09:21:44.347Z,2.808
2023-01-07T09:23:46.018Z,3.229
2023-01-07T09:25:47.904Z,3.088
2023-01-07T09:29:50.882Z,6.037
2023-01-07T09:31:52.414Z,3.088
2023-01-07T09:33:54.052Z,0.982
2023-01-07T09:35:55.422Z,3.088
2023-01-07T09:39:58.670Z,0.842
2023-01-07T09:42:00.038Z,4.773
2023-01-07T09:44:02.829Z,4.633
2023-01-07T09:46:03.419Z,2.667
2023-01-07T09:50:06.510Z,6.318
2023-01-07T09:52:07.962Z,4.352
2023-01-07T09:54:09.861Z,5.194
2023-01-07T09:56:12.812Z,4.633
2023-01-07T09:58:13.366Z,3.51
2023-01-07T10:02:16.898Z,1.123
2023-01-07T10:04:18.066Z,1.965
2023-01-07T10:06:26.229Z,3.65
2023-01-07T10:08:29.616Z,4.773
2023-01-07T10:12:24.114Z,2.808
2023-01-07T10:14:25.818Z,5.475
2023-01-07T10:16:27.267Z,2.106
2023-01-07T10:18:28.785Z,3.65
2023-01-07T10:22:32.191Z,5.756
2023-01-07T10:24:33.215Z,3.79
2023-01-07T10:26:34.485Z,4.773
2023-01-07T10:28:36.027Z,2.667
2023-01-07T10:32:38.065Z,3.369
2023-01-07T10:34:39.226Z,3.79
2023-01-07T10:36:40.213Z,4.633
2023-01-07T10:38:41.508Z,3.369
2023-01-07T10:40:42.929Z,5.054
2023-01-07T10:42:44.579Z,7.16
2023-01-07T10:44:46.136Z,4.633
2023-01-07T10:46:47.966Z,4.773
2023-01-07T10:48:48.914Z,6.037
2023-01-07T10:50:50.659Z,5.475
2023-01-07T10:52:52.547Z,3.51
2023-01-07T10:54:54.443Z,5.335
2023-01-07T10:56:55.395Z,5.756
2023-01-07T10:58:56.745Z,5.616
2023-01-07T11:00:58.334Z,7.441
2023-01-07T11:03:00.045Z,7.722
2023-01-07T11:05:01.741Z,6.318
2023-01-07T11:07:02.712Z,6.177
2023-01-07T11:09:03.845Z,3.229
2023-01-07T11:11:05.309Z,4.492
2023-01-07T11:13:06.558Z,4.492
2023-01-07T11:15:08.052Z,4.352
2023-01-07T11:17:09.452Z,1.825
2023-01-07T11:19:10.814Z,3.65
2023-01-07T11:21:42.339Z,0.982
2023-01-07T11:23:13.131Z,8.704
2023-01-07T11:25:14.951Z,4.071
2023-01-07T11:27:25.227Z,5.475
2023-01-07T11:29:17.174Z,3.369
2023-01-07T11:31:18.822Z,4.352
2023-01-07T11:33:20.178Z,4.914
2023-01-07T11:35:22.816Z,3.369
2023-01-07T11:37:23.432Z,3.931
2023-01-07T11:39:24.627Z,6.177
2023-01-07T11:41:25.487Z,4.212
2023-01-07T11:43:26.889Z,6.177
2023-01-07T11:45:28.162Z,3.79
2023-01-07T11:47:29.890Z,2.386
2023-01-07T11:49:31.060Z,4.914
2023-01-07T11:51:32.300Z,1.825
2023-01-07T11:53:33.286Z,1.825
2023-01-07T11:55:34.614Z,1.404
2023-01-07T11:57:36.010Z,6.037
2023-01-07T11:59:37.694Z,8.424
2023-01-07T12:03:40.184Z,3.088
2023-01-07T12:05:41.613Z,3.088
2023-01-07T12:07:42.592Z,1.965
2023-01-07T12:09:43.984Z,1.263
2023-01-07T12:13:46.795Z,4.773
2023-01-07T12:15:47.940Z,2.808
2023-01-07T12:17:49.445Z,3.51
2023-01-07T12:19:50.516Z,3.229
2023-01-07T12:21:52.065Z,3.088
2023-01-07T12:23:53.272Z,3.369
2023-01-07T12:25:54.508Z,5.335
2023-01-07T12:27:56.341Z,4.633
2023-01-07T12:29:57.799Z,2.246
2023-01-07T12:31:58.974Z,3.65
2023-01-07T12:36:02.194Z,7.3
2023-01-07T12:38:04.007Z,1.684
2023-01-07T12:40:05.897Z,5.335
2023-01-07T12:42:07.129Z,5.054
2023-01-07T12:46:09.704Z,4.352
2023-01-07T12:48:10.592Z,2.106
2023-01-07T12:50:12.181Z,3.369
2023-01-07T12:50:55.978Z,6.739
2023-01-07T12:52:57.584Z,3.51
2023-01-07T12:54:58.484Z,3.088
2023-01-07T12:56:59.532Z,2.667
2023-01-07T12:59:00.897Z,6.037
2023-01-07T13:01:02.911Z,2.527
2023-01-07T13:03:03.779Z,6.318
2023-01-07T13:05:05.608Z,5.194
2023-01-07T13:07:07.052Z,6.879
2023-01-07T13:09:08.604Z,0.702
2023-01-07T13:11:09.784Z,3.088
2023-01-07T13:13:10.789Z,2.527
2023-01-07T13:15:12.107Z,2.667
2023-01-07T13:17:13.931Z,3.79
2023-01-07T13:19:15.145Z,4.212
2023-01-07T13:21:17.060Z,5.194
2023-01-07T13:23:18.875Z,3.931
2023-01-07T13:25:20.015Z,4.914
2023-01-07T13:27:21.011Z,7.02
2023-01-07T13:29:22.295Z,4.914
2023-01-07T13:31:23.510Z,3.51
2023-01-07T13:33:24.589Z,3.369
2023-01-07T13:35:26.156Z,1.965
2023-01-07T13:39:28.862Z,4.914
2023-01-07T13:41:30.300Z,3.51
2023-01-07T13:43:31.586Z,0.28
2023-01-07T13:45:33.373Z,0.561
2023-01-07T13:49:37.146Z,1.123
2023-01-07T13:51:38.155Z,1.123
2023-01-07T13:53:39.231Z,2.106
2023-01-07T13:55:40.512Z,2.246
2023-01-07T13:57:42.036Z,1.965
2023-01-07T13:59:43.262Z,0.561
2023-01-07T14:01:44.371Z,0.421
2023-01-07T14:03:45.551Z,0.702
2023-01-07T14:05:47.050Z,0.28
2023-01-07T14:07:48.559Z,0.421
2023-01-07T14:11:51.161Z,1.544
2023-01-07T14:13:52.239Z,1.684
2023-01-07T14:15:53.804Z,2.106
2023-01-07T14:17:55.557Z,2.948
2023-01-07T14:21:58.335Z,0
2023-01-07T14:24:00.038Z,0
2023-01-07T14:26:01.372Z,1.263
2023-01-07T14:28:02.289Z,1.404
2023-01-07T14:32:04.683Z,4.212
2023-01-07T14:34:06.151Z,0.561
2023-01-07T14:36:07.114Z,0
2023-01-07T14:38:08.355Z,0.982
2023-01-07T14:40:09.890Z,1.684
2023-01-07T14:42:11.724Z,2.948
2023-01-07T14:44:13.111Z,0.982
2023-01-07T14:46:15.958Z,0
2023-01-07T14:48:15.546Z,0
2023-01-07T14:50:17.007Z,0
2023-01-07T14:52:18.669Z,0
2023-01-07T14:54:20.531Z,0
2023-01-07T14:56:22.312Z,0
2023-01-07T14:58:23.978Z,0
2023-01-07T15:00:25.823Z,0
2023-01-07T15:02:27.325Z,0
2023-01-07T15:04:28.135Z,0
2023-01-07T15:06:29.348Z,3.51
2023-01-07T15:08:30.299Z,2.948
2023-01-07T15:10:31.797Z,4.071
2023-01-07T15:12:32.736Z,1.544
2023-01-07T15:14:34.328Z,2.667
2023-01-07T15:16:36.022Z,2.948
2023-01-07T15:18:37.581Z,3.65
2023-01-07T15:20:38.591Z,3.369
2023-01-07T15:22:40.321Z,3.229
2023-01-07T15:24:41.425Z,4.633
2023-01-07T15:26:42.635Z,3.79
2023-01-07T15:28:44.323Z,2.106
2023-01-07T15:30:45.526Z,5.194
2023-01-07T15:32:49.807Z,3.229
2023-01-07T15:34:49.149Z,2.386
2023-01-07T15:36:50.300Z,2.948
2023-01-07T15:38:51.711Z,2.667
2023-01-07T15:40:52.690Z,4.633
2023-01-07T15:42:54.204Z,1.825
2023-01-07T15:44:55.730Z,3.79
2023-01-07T15:46:57.110Z,1.825
2023-01-07T15:48:58.767Z,5.335
2023-01-07T15:51:00.704Z,5.616
2023-01-07T15:53:02.111Z,3.088
2023-01-07T15:55:03.781Z,1.263
2023-01-07T15:57:04.758Z,3.51
2023-01-07T15:59:06.446Z,3.369
2023-01-07T16:03:09.181Z,3.79
2023-01-07T16:05:10.990Z,4.212
2023-01-07T16:07:12.869Z,4.492
2023-01-07T16:09:13.886Z,4.773
2023-01-07T16:13:16.727Z,4.914
2023-01-07T16:15:18.060Z,2.386
2023-01-07T16:17:19.748Z,4.352
2023-01-07T16:19:20.979Z,3.369
2023-01-07T16:21:22.112Z,3.65
2023-01-07T16:23:23.631Z,1.404
2023-01-07T16:25:25.500Z,1.544
2023-01-07T16:27:26.570Z,3.088
2023-01-07T16:29:28.434Z,0.842
2023-01-07T16:31:29.514Z,0.14
2023-01-07T16:33:30.982Z,0.561
2023-01-07T16:35:32.215Z,0
2023-01-07T16:37:35.098Z,0
2023-01-07T16:39:35.223Z,0
2023-01-07T16:41:36.571Z,0.702
2023-01-07T16:45:39.769Z,1.404
2023-01-07T16:47:40.978Z,0.421
2023-01-07T16:49:42.729Z,2.386
2023-01-07T16:51:43.727Z,0.702
2023-01-07T16:55:46.495Z,0
2023-01-07T16:57:47.855Z,0
2023-01-07T16:59:48.897Z,0
2023-01-07T17:01:50.550Z,1.684
2023-01-07T17:03:52.201Z,1.123
2023-01-07T17:05:53.201Z,1.965
2023-01-07T17:07:54.697Z,1.123
2023-01-07T17:09:56.053Z,1.123
2023-01-07T17:11:57.560Z,0.14
2023-01-07T17:13:58.844Z,0
2023-01-07T17:16:00.281Z,0
2023-01-07T17:18:02.130Z,0
2023-01-07T17:20:03.959Z,0
2023-01-07T17:22:05.517Z,1.404
2023-01-07T17:24:07.338Z,0
2023-01-07T17:26:09.151Z,0.14
2023-01-07T17:28:10.345Z,3.931
2023-01-07T17:30:11.445Z,2.667
2023-01-07T17:32:12.805Z,1.965
2023-01-07T17:34:14.327Z,0
2023-01-07T17:36:16.038Z,1.684
2023-01-07T17:38:17.224Z,2.106
2023-01-07T17:40:18.271Z,0.842
2023-01-07T17:42:19.909Z,0.982
2023-01-07T17:44:21.547Z,0
2023-01-07T17:46:24.193Z,1.684
2023-01-07T17:48:24.753Z,0.28
2023-01-07T17:50:25.963Z,0
2023-01-07T17:52:27.320Z,2.246
2023-01-07T17:54:28.504Z,0
2023-01-07T17:56:30.036Z,0
2023-01-07T17:58:31.419Z,0
2023-01-07T18:00:33.103Z,1.544
2023-01-07T18:02:35.000Z,1.404
2023-01-07T18:04:36.265Z,0.982
2023-01-07T18:06:37.445Z,0
2023-01-07T18:08:38.735Z,0
2023-01-07T18:10:40.463Z,0.14
2023-01-07T18:12:41.728Z,2.948
2023-01-07T18:14:43.542Z,0
2023-01-07T18:16:44.644Z,0.28
2023-01-07T18:18:45.695Z,3.931
2023-01-07T18:20:47.192Z,0.28
2023-01-07T18:22:48.477Z,0.982
2023-01-07T18:26:51.526Z,1.684
2023-01-07T18:28:52.861Z,0
2023-01-07T18:30:54.078Z,0
2023-01-07T18:32:55.711Z,0
2023-01-07T18:36:58.638Z,0
2023-01-07T18:38:59.957Z,0
2023-01-07T18:41:01.658Z,0
2023-01-07T18:43:03.349Z,0
2023-01-07T18:45:04.834Z,0
2023-01-07T18:47:06.630Z,0
2023-01-07T18:49:07.600Z,0
2023-01-07T18:51:09.429Z,0
2023-01-07T18:53:11.227Z,0.421
2023-01-07T18:55:12.791Z,0
2023-01-07T18:57:14.233Z,1.404
2023-01-07T18:59:15.757Z,0
2023-01-07T19:01:17.361Z,0
2023-01-07T19:03:18.320Z,0.14
2023-01-07T19:05:20.262Z,0.14
2023-01-07T19:09:23.119Z,0
2023-01-07T19:11:25.088Z,0
2023-01-07T19:13:26.074Z,0
2023-01-07T19:15:27.712Z,0
2023-01-07T19:19:37.022Z,0
2023-01-07T19:21:32.331Z,0
2023-01-07T19:23:33.615Z,0
2023-01-07T19:25:35.134Z,0
2023-01-07T19:27:36.704Z,0
2023-01-07T19:29:38.199Z,0
2023-01-07T19:31:39.643Z,0
2023-01-07T19:33:41.080Z,0.561
2023-01-07T19:35:42.767Z,0.421
2023-01-07T19:36:26.652Z,0.842
2023-01-07T19:38:37.308Z,0
2023-01-07T19:40:30.266Z,1.684
2023-01-07T19:42:31.297Z,2.106
2023-01-07T19:46:34.506Z,1.825
2023-01-07T19:48:36.380Z,2.948
2023-01-07T19:50:38.191Z,0.28
2023-01-07T19:52:39.176Z,0
2023-01-07T19:56:42.125Z,0
2023-01-07T19:58:43.823Z,1.123
2023-01-07T20:00:45.014Z,1.123
2023-01-07T20:02:46.144Z,1.404
2023-01-07T20:04:47.743Z,1.544
2023-01-07T20:06:49.364Z,0.842
2023-01-07T20:08:51.182Z,0
2023-01-07T20:10:52.878Z,0
2023-01-07T20:12:54.854Z,0
2023-01-07T20:14:56.769Z,0
2023-01-07T20:16:57.810Z,0
2023-01-07T20:18:59.690Z,0
2023-01-07T20:21:01.394Z,0
2023-01-07T20:23:02.553Z,0.702
2023-01-07T20:25:03.931Z,0
2023-01-07T20:29:07.362Z,0
2023-01-07T20:31:08.796Z,0
2023-01-07T20:33:10.716Z,0
2023-01-07T20:35:12.582Z,0
2023-01-07T20:39:15.536Z,0
2023-01-07T20:41:17.219Z,0.421
2023-01-07T20:43:18.485Z,0
2023-01-07T20:45:20.030Z,0.561
2023-01-07T20:47:21.905Z,3.088
2023-01-07T20:49:22.964Z,0
2023-01-07T20:51:24.218Z,0.14
2023-01-07T20:53:25.228Z,0
2023-01-07T20:55:27.012Z,0
2023-01-07T20:57:28.317Z,0
2023-01-07T20:59:29.954Z,0
2023-01-07T21:01:31.363Z,0
2023-01-07T21:03:33.151Z,0
2023-01-07T21:05:34.177Z,1.544
2023-01-07T21:07:36.026Z,0
2023-01-07T21:09:36.980Z,0
2023-01-07T21:11:38.503Z,0
2023-01-07T21:13:40.064Z,0
2023-01-07T21:15:41.378Z,0
2023-01-07T21:17:43.296Z,0
2023-01-07T21:19:44.799Z,0
2023-01-07T21:21:45.976Z,0
2023-01-07T21:23:47.457Z,0
2023-01-07T21:27:50.180Z,0.982
2023-01-07T21:29:51.793Z,0
2023-01-07T21:31:53.023Z,0
2023-01-07T21:33:54.806Z,0
2023-01-07T21:35:56.144Z,0.28
2023-01-07T21:37:58.027Z,1.404
2023-01-07T21:39:59.308Z,0.842
2023-01-07T21:42:00.291Z,0.982
2023-01-07T21:44:02.289Z,0.28
2023-01-07T21:46:03.969Z,0
2023-01-07T21:50:07.141Z,1.965
2023-01-07T21:52:08.771Z,0.702
2023-01-07T21:54:10.240Z,0.14
2023-01-07T21:56:11.881Z,0
2023-01-07T21:58:13.170Z,0
2023-01-07T22:00:15.003Z,1.404
2023-01-07T22:02:16.450Z,0.14
2023-01-07T22:04:17.839Z,2.386
2023-01-07T22:06:19.416Z,2.808
2023-01-07T22:08:20.951Z,1.263
2023-01-07T22:10:22.943Z,2.386
2023-01-07T22:12:24.196Z,0.561
2023-01-07T22:14:25.751Z,0
2023-01-07T22:16:27.315Z,0
2023-01-07T22:18:28.488Z,0
2023-01-07T22:20:30.038Z,0
2023-01-07T22:22:31.921Z,0
2023-01-07T22:24:33.699Z,0
2023-01-07T22:26:35.516Z,0
2023-01-07T22:28:37.101Z,0
2023-01-07T22:30:38.212Z,0
2023-01-07T22:32:39.518Z,0
2023-01-07T22:34:40.582Z,0
2023-01-07T22:36:42.299Z,0
2023-01-07T22:38:44.162Z,0
2023-01-07T22:40:45.991Z,0
2023-01-07T22:42:47.741Z,0
2023-01-07T22:44:48.831Z,0
2023-01-07T22:46:50.612Z,0
2023-01-07T22:48:52.583Z,0
2023-01-07T22:50:54.097Z,0
2023-01-07T22:52:55.837Z,0
2023-01-07T22:54:57.293Z,0
2023-01-07T22:56:58.901Z,0
2023-01-07T22:59:00.394Z,0
2023-01-07T23:01:01.466Z,0
2023-01-07T23:03:03.172Z,0.28
2023-01-07T23:05:04.499Z,1.544
2023-01-07T23:07:05.735Z,0
2023-01-07T23:09:07.365Z,1.123
2023-01-07T23:11:09.254Z,0
2023-01-07T23:13:11.097Z,0
2023-01-07T23:15:12.731Z,0
2023-01-07T23:17:14.727Z,0
2023-01-07T23:19:16.088Z,0
2023-01-07T23:21:17.694Z,0
2023-01-07T23:23:19.037Z,0.982
2023-01-07T23:25:20.878Z,0.702
2023-01-07T23:27:22.591Z,0.702
2023-01-07T23:29:24.507Z,0.561
2023-01-07T23:31:26.521Z,0.421
2023-01-07T23:33:27.668Z,2.106
2023-01-07T23:35:29.095Z,0
2023-01-07T23:37:30.913Z,0.14
2023-01-07T23:39:32.027Z,0
2023-01-07T23:41:33.798Z,0
2023-01-07T23:43:35.528Z,0
2023-01-07T23:45:36.772Z,2.527
2023-01-07T23:47:37.943Z,2.246
2023-01-07T23:49:39.202Z,0.14
2023-01-07T23:51:40.950Z,2.948
2023-01-07T23:53:42.505Z,0.842
2023-01-07T23:55:43.967Z,0
2023-01-07T23:57:45.376Z,0
2023-01-07T23:59:46.779Z,0
